sensor_id;sensor_type;location;lat;lon;timestamp;P1;durP1;ratioP1;P2;durP2;ratioP2
47715;SDS011;33476;50.984;3.538;2023-07-31T00:01:44;13.98;;;4.53;;
47715;SDS011;33476;50.984;3.538;2023-07-31T00:04:09;11.20;;;3.20;;
47715;SDS011;33476;50.984;3.538;2023-07-31T00:06:34;14.73;;;3.95;;
47715;SDS011;33476;50.984;3.538;2023-07-31T00:09:00;13.43;;;3.83;;
47715;SDS011;33476;50.984;3.538;2023-07-31T00:11:25;14.18;;;4.25;;
47715;SDS011;33476;50.984;3.538;2023-07-31T00:13:52;12.00;;;3.40;;
47715;SDS011;33476;50.984;3.538;2023-07-31T00:16:18;14.35;;;3.90;;
47715;SDS011;33476;50.984;3.538;2023-07-31T00:18:44;13.27;;;3.40;;
47715;SDS011;33476;50.984;3.538;2023-07-31T00:21:09;13.65;;;3.35;;
47715;SDS011;33476;50.984;3.538;2023-07-31T00:23:34;12.48;;;3.08;;
47715;SDS011;33476;50.984;3.538;2023-07-31T00:26:00;8.75;;;2.90;;
47715;SDS011;33476;50.984;3.538;2023-07-31T00:28:25;10.88;;;2.65;;
47715;SDS011;33476;50.984;3.538;2023-07-31T00:30:51;12.85;;;3.10;;
47715;SDS011;33476;50.984;3.538;2023-07-31T00:33:17;15.15;;;3.13;;
47715;SDS011;33476;50.984;3.538;2023-07-31T00:35:42;13.90;;;3.03;;
47715;SDS011;33476;50.984;3.538;2023-07-31T00:38:07;14.18;;;3.15;;
47715;SDS011;33476;50.984;3.538;2023-07-31T00:40:36;14.57;;;3.70;;
47715;SDS011;33476;50.984;3.538;2023-07-31T00:43:02;12.95;;;3.35;;
47715;SDS011;33476;50.984;3.538;2023-07-31T00:45:28;14.70;;;3.15;;
47715;SDS011;33476;50.984;3.538;2023-07-31T00:47:54;10.75;;;3.25;;
47715;SDS011;33476;50.984;3.538;2023-07-31T00:50:19;10.40;;;2.95;;
47715;SDS011;33476;50.984;3.538;2023-07-31T00:52:44;9.55;;;3.15;;
47715;SDS011;33476;50.984;3.538;2023-07-31T00:55:10;13.77;;;3.17;;
47715;SDS011;33476;50.984;3.538;2023-07-31T00:57:36;14.93;;;3.25;;
47715;SDS011;33476;50.984;3.538;2023-07-31T01:00:02;11.95;;;2.97;;
47715;SDS011;33476;50.984;3.538;2023-07-31T01:02:28;8.30;;;2.65;;
47715;SDS011;33476;50.984;3.538;2023-07-31T01:04:53;13.80;;;3.15;;
47715;SDS011;33476;50.984;3.538;2023-07-31T01:07:21;14.27;;;2.63;;
47715;SDS011;33476;50.984;3.538;2023-07-31T01:09:58;12.40;;;2.70;;
47715;SDS011;33476;50.984;3.538;2023-07-31T01:12:36;12.45;;;2.72;;
47715;SDS011;33476;50.984;3.538;2023-07-31T01:15:04;13.63;;;2.92;;
47715;SDS011;33476;50.984;3.538;2023-07-31T01:17:30;9.63;;;2.33;;
47715;SDS011;33476;50.984;3.538;2023-07-31T01:19:56;11.65;;;3.03;;
47715;SDS011;33476;50.984;3.538;2023-07-31T01:27:28;8.52;;;2.55;;
47715;SDS011;33476;50.984;3.538;2023-07-31T01:29:56;12.40;;;2.45;;
47715;SDS011;33476;50.984;3.538;2023-07-31T01:32:29;11.45;;;2.85;;
47715;SDS011;33476;50.984;3.538;2023-07-31T01:34:54;15.63;;;3.42;;
47715;SDS011;33476;50.984;3.538;2023-07-31T01:37:27;13.52;;;3.03;;
47715;SDS011;33476;50.984;3.538;2023-07-31T01:39:53;11.88;;;2.78;;
47715;SDS011;33476;50.984;3.538;2023-07-31T01:42:19;9.73;;;2.28;;
47715;SDS011;33476;50.984;3.538;2023-07-31T01:44:44;10.82;;;2.40;;
47715;SDS011;33476;50.984;3.538;2023-07-31T01:47:09;12.60;;;3.08;;
47715;SDS011;33476;50.984;3.538;2023-07-31T01:49:35;9.60;;;2.33;;
47715;SDS011;33476;50.984;3.538;2023-07-31T01:52:00;11.55;;;2.47;;
47715;SDS011;33476;50.984;3.538;2023-07-31T01:54:25;16.52;;;2.55;;
47715;SDS011;33476;50.984;3.538;2023-07-31T01:56:51;13.88;;;2.40;;
47715;SDS011;33476;50.984;3.538;2023-07-31T01:59:16;10.00;;;2.65;;
47715;SDS011;33476;50.984;3.538;2023-07-31T02:01:41;10.70;;;2.45;;
47715;SDS011;33476;50.984;3.538;2023-07-31T02:04:07;13.57;;;2.80;;
47715;SDS011;33476;50.984;3.538;2023-07-31T02:06:32;13.75;;;2.78;;
47715;SDS011;33476;50.984;3.538;2023-07-31T02:08:57;8.80;;;2.40;;
47715;SDS011;33476;50.984;3.538;2023-07-31T02:11:23;8.98;;;2.15;;
47715;SDS011;33476;50.984;3.538;2023-07-31T02:13:48;7.03;;;2.42;;
47715;SDS011;33476;50.984;3.538;2023-07-31T02:16:13;8.63;;;2.10;;
47715;SDS011;33476;50.984;3.538;2023-07-31T02:18:39;9.43;;;2.45;;
47715;SDS011;33476;50.984;3.538;2023-07-31T02:21:04;15.70;;;2.35;;
47715;SDS011;33476;50.984;3.538;2023-07-31T02:23:29;18.60;;;2.55;;
47715;SDS011;33476;50.984;3.538;2023-07-31T02:25:55;10.02;;;2.38;;
47715;SDS011;33476;50.984;3.538;2023-07-31T02:28:20;13.02;;;2.40;;
47715;SDS011;33476;50.984;3.538;2023-07-31T02:30:45;10.40;;;2.05;;
47715;SDS011;33476;50.984;3.538;2023-07-31T02:33:14;13.25;;;2.40;;
47715;SDS011;33476;50.984;3.538;2023-07-31T02:35:41;12.15;;;2.58;;
47715;SDS011;33476;50.984;3.538;2023-07-31T02:38:06;14.38;;;2.83;;
47715;SDS011;33476;50.984;3.538;2023-07-31T02:40:32;8.30;;;2.08;;
47715;SDS011;33476;50.984;3.538;2023-07-31T02:42:57;10.98;;;2.60;;
47715;SDS011;33476;50.984;3.538;2023-07-31T02:45:22;13.20;;;2.42;;
47715;SDS011;33476;50.984;3.538;2023-07-31T02:47:48;10.05;;;2.78;;
47715;SDS011;33476;50.984;3.538;2023-07-31T02:50:13;12.82;;;2.53;;
47715;SDS011;33476;50.984;3.538;2023-07-31T02:52:38;15.00;;;3.05;;
47715;SDS011;33476;50.984;3.538;2023-07-31T02:55:04;11.60;;;2.22;;
47715;SDS011;33476;50.984;3.538;2023-07-31T02:57:29;11.93;;;2.28;;
47715;SDS011;33476;50.984;3.538;2023-07-31T02:59:54;14.48;;;2.47;;
47715;SDS011;33476;50.984;3.538;2023-07-31T03:02:20;8.07;;;2.47;;
47715;SDS011;33476;50.984;3.538;2023-07-31T03:04:45;9.27;;;2.38;;
47715;SDS011;33476;50.984;3.538;2023-07-31T03:07:11;12.38;;;2.45;;
47715;SDS011;33476;50.984;3.538;2023-07-31T03:09:36;9.60;;;2.65;;
47715;SDS011;33476;50.984;3.538;2023-07-31T03:12:01;10.43;;;3.25;;
47715;SDS011;33476;50.984;3.538;2023-07-31T03:14:28;6.47;;;2.38;;
47715;SDS011;33476;50.984;3.538;2023-07-31T03:16:53;13.75;;;2.92;;
47715;SDS011;33476;50.984;3.538;2023-07-31T03:19:19;8.93;;;2.33;;
47715;SDS011;33476;50.984;3.538;2023-07-31T03:21:44;9.45;;;2.42;;
47715;SDS011;33476;50.984;3.538;2023-07-31T03:24:10;8.73;;;2.70;;
47715;SDS011;33476;50.984;3.538;2023-07-31T03:26:37;10.60;;;2.95;;
47715;SDS011;33476;50.984;3.538;2023-07-31T03:29:03;9.63;;;2.13;;
47715;SDS011;33476;50.984;3.538;2023-07-31T03:31:28;10.73;;;2.28;;
47715;SDS011;33476;50.984;3.538;2023-07-31T03:33:53;9.05;;;2.28;;
47715;SDS011;33476;50.984;3.538;2023-07-31T03:36:19;14.15;;;2.50;;
47715;SDS011;33476;50.984;3.538;2023-07-31T03:38:45;7.68;;;2.08;;
47715;SDS011;33476;50.984;3.538;2023-07-31T03:41:11;11.30;;;2.75;;
47715;SDS011;33476;50.984;3.538;2023-07-31T03:43:36;9.82;;;2.40;;
47715;SDS011;33476;50.984;3.538;2023-07-31T03:46:02;12.52;;;2.97;;
47715;SDS011;33476;50.984;3.538;2023-07-31T03:48:28;9.52;;;2.30;;
47715;SDS011;33476;50.984;3.538;2023-07-31T03:50:54;11.80;;;2.38;;
47715;SDS011;33476;50.984;3.538;2023-07-31T03:53:19;14.65;;;3.15;;
47715;SDS011;33476;50.984;3.538;2023-07-31T03:55:45;9.70;;;2.83;;
47715;SDS011;33476;50.984;3.538;2023-07-31T03:58:10;6.78;;;2.50;;
47715;SDS011;33476;50.984;3.538;2023-07-31T04:00:36;11.15;;;2.90;;
47715;SDS011;33476;50.984;3.538;2023-07-31T04:03:01;9.25;;;2.60;;
47715;SDS011;33476;50.984;3.538;2023-07-31T04:05:27;5.80;;;2.55;;
47715;SDS011;33476;50.984;3.538;2023-07-31T04:07:52;9.50;;;2.55;;
47715;SDS011;33476;50.984;3.538;2023-07-31T04:10:17;11.45;;;2.55;;
47715;SDS011;33476;50.984;3.538;2023-07-31T04:12:43;11.07;;;2.47;;
47715;SDS011;33476;50.984;3.538;2023-07-31T04:15:08;5.88;;;1.88;;
47715;SDS011;33476;50.984;3.538;2023-07-31T04:17:34;6.72;;;2.15;;
47715;SDS011;33476;50.984;3.538;2023-07-31T04:19:59;4.68;;;1.80;;
47715;SDS011;33476;50.984;3.538;2023-07-31T04:22:25;5.50;;;1.90;;
47715;SDS011;33476;50.984;3.538;2023-07-31T04:24:50;5.55;;;1.60;;
47715;SDS011;33476;50.984;3.538;2023-07-31T04:27:15;4.25;;;1.35;;
47715;SDS011;33476;50.984;3.538;2023-07-31T04:29:41;6.78;;;1.40;;
47715;SDS011;33476;50.984;3.538;2023-07-31T04:32:07;3.83;;;1.30;;
47715;SDS011;33476;50.984;3.538;2023-07-31T04:34:33;4.68;;;1.20;;
47715;SDS011;33476;50.984;3.538;2023-07-31T04:36:58;5.25;;;1.58;;
47715;SDS011;33476;50.984;3.538;2023-07-31T04:39:24;5.78;;;1.17;;
47715;SDS011;33476;50.984;3.538;2023-07-31T04:41:49;6.28;;;1.80;;
47715;SDS011;33476;50.984;3.538;2023-07-31T04:44:14;7.95;;;1.77;;
47715;SDS011;33476;50.984;3.538;2023-07-31T04:46:40;5.78;;;1.55;;
47715;SDS011;33476;50.984;3.538;2023-07-31T04:49:05;6.68;;;1.38;;
47715;SDS011;33476;50.984;3.538;2023-07-31T04:51:30;5.00;;;1.27;;
47715;SDS011;33476;50.984;3.538;2023-07-31T04:53:56;3.47;;;1.67;;
47715;SDS011;33476;50.984;3.538;2023-07-31T04:56:21;2.95;;;1.58;;
47715;SDS011;33476;50.984;3.538;2023-07-31T04:58:47;4.65;;;1.33;;
47715;SDS011;33476;50.984;3.538;2023-07-31T05:01:12;5.55;;;1.63;;
47715;SDS011;33476;50.984;3.538;2023-07-31T05:03:38;6.57;;;1.63;;
47715;SDS011;33476;50.984;3.538;2023-07-31T05:06:03;3.30;;;1.40;;
47715;SDS011;33476;50.984;3.538;2023-07-31T05:08:28;4.82;;;1.70;;
47715;SDS011;33476;50.984;3.538;2023-07-31T05:10:54;7.22;;;1.55;;
47715;SDS011;33476;50.984;3.538;2023-07-31T05:13:19;6.15;;;1.60;;
47715;SDS011;33476;50.984;3.538;2023-07-31T05:15:45;5.22;;;1.70;;
47715;SDS011;33476;50.984;3.538;2023-07-31T05:18:10;10.00;;;2.03;;
47715;SDS011;33476;50.984;3.538;2023-07-31T05:20:36;6.47;;;1.77;;
47715;SDS011;33476;50.984;3.538;2023-07-31T05:23:01;8.48;;;1.70;;
47715;SDS011;33476;50.984;3.538;2023-07-31T05:25:26;4.85;;;1.42;;
47715;SDS011;33476;50.984;3.538;2023-07-31T05:27:52;2.85;;;1.33;;
47715;SDS011;33476;50.984;3.538;2023-07-31T05:30:17;7.55;;;1.83;;
47715;SDS011;33476;50.984;3.538;2023-07-31T05:32:43;6.05;;;1.83;;
47715;SDS011;33476;50.984;3.538;2023-07-31T05:35:09;4.63;;;1.77;;
47715;SDS011;33476;50.984;3.538;2023-07-31T05:37:34;5.47;;;1.70;;
47715;SDS011;33476;50.984;3.538;2023-07-31T05:40:00;7.38;;;1.45;;
47715;SDS011;33476;50.984;3.538;2023-07-31T05:42:25;5.32;;;1.27;;
47715;SDS011;33476;50.984;3.538;2023-07-31T05:44:50;3.83;;;1.70;;
47715;SDS011;33476;50.984;3.538;2023-07-31T05:47:16;3.97;;;1.48;;
47715;SDS011;33476;50.984;3.538;2023-07-31T05:49:41;9.60;;;1.67;;
47715;SDS011;33476;50.984;3.538;2023-07-31T05:52:07;5.95;;;1.80;;
47715;SDS011;33476;50.984;3.538;2023-07-31T05:54:32;10.40;;;1.48;;
47715;SDS011;33476;50.984;3.538;2023-07-31T05:56:58;5.10;;;1.70;;
47715;SDS011;33476;50.984;3.538;2023-07-31T05:59:23;8.85;;;1.85;;
47715;SDS011;33476;50.984;3.538;2023-07-31T06:01:49;6.60;;;1.70;;
47715;SDS011;33476;50.984;3.538;2023-07-31T06:04:14;9.07;;;1.55;;
47715;SDS011;33476;50.984;3.538;2023-07-31T06:06:39;6.03;;;1.65;;
47715;SDS011;33476;50.984;3.538;2023-07-31T06:09:05;5.35;;;1.40;;
47715;SDS011;33476;50.984;3.538;2023-07-31T06:11:31;4.57;;;1.45;;
47715;SDS011;33476;50.984;3.538;2023-07-31T06:13:56;10.50;;;2.00;;
47715;SDS011;33476;50.984;3.538;2023-07-31T06:16:22;5.82;;;1.58;;
47715;SDS011;33476;50.984;3.538;2023-07-31T06:18:48;6.50;;;1.63;;
47715;SDS011;33476;50.984;3.538;2023-07-31T06:21:13;7.35;;;1.25;;
47715;SDS011;33476;50.984;3.538;2023-07-31T06:23:38;7.40;;;1.67;;
47715;SDS011;33476;50.984;3.538;2023-07-31T06:26:04;2.58;;;1.00;;
47715;SDS011;33476;50.984;3.538;2023-07-31T06:28:30;6.32;;;1.50;;
47715;SDS011;33476;50.984;3.538;2023-07-31T06:30:56;5.35;;;1.80;;
47715;SDS011;33476;50.984;3.538;2023-07-31T06:33:25;7.55;;;1.13;;
47715;SDS011;33476;50.984;3.538;2023-07-31T06:35:51;3.75;;;1.55;;
47715;SDS011;33476;50.984;3.538;2023-07-31T06:38:19;3.40;;;1.15;;
47715;SDS011;33476;50.984;3.538;2023-07-31T06:40:49;5.13;;;1.10;;
47715;SDS011;33476;50.984;3.538;2023-07-31T06:43:14;5.90;;;1.25;;
47715;SDS011;33476;50.984;3.538;2023-07-31T06:45:39;5.30;;;1.48;;
47715;SDS011;33476;50.984;3.538;2023-07-31T06:48:05;5.10;;;1.27;;
47715;SDS011;33476;50.984;3.538;2023-07-31T06:50:31;6.57;;;1.35;;
47715;SDS011;33476;50.984;3.538;2023-07-31T06:52:56;5.82;;;1.67;;
47715;SDS011;33476;50.984;3.538;2023-07-31T06:55:22;4.15;;;1.80;;
47715;SDS011;33476;50.984;3.538;2023-07-31T06:57:51;7.10;;;1.75;;
47715;SDS011;33476;50.984;3.538;2023-07-31T07:00:19;4.57;;;1.30;;
47715;SDS011;33476;50.984;3.538;2023-07-31T07:02:46;6.82;;;1.33;;
47715;SDS011;33476;50.984;3.538;2023-07-31T07:05:15;4.28;;;1.17;;
47715;SDS011;33476;50.984;3.538;2023-07-31T07:07:42;5.63;;;0.95;;
47715;SDS011;33476;50.984;3.538;2023-07-31T07:10:08;4.75;;;1.25;;
47715;SDS011;33476;50.984;3.538;2023-07-31T07:12:33;5.13;;;1.20;;
47715;SDS011;33476;50.984;3.538;2023-07-31T07:14:59;4.18;;;1.10;;
47715;SDS011;33476;50.984;3.538;2023-07-31T07:17:29;2.85;;;0.90;;
47715;SDS011;33476;50.984;3.538;2023-07-31T07:19:58;2.88;;;0.80;;
47715;SDS011;33476;50.984;3.538;2023-07-31T07:22:25;5.13;;;1.30;;
47715;SDS011;33476;50.984;3.538;2023-07-31T07:24:51;4.70;;;1.00;;
47715;SDS011;33476;50.984;3.538;2023-07-31T07:27:17;1.90;;;0.68;;
47715;SDS011;33476;50.984;3.538;2023-07-31T07:29:42;3.53;;;0.82;;
47715;SDS011;33476;50.984;3.538;2023-07-31T07:32:08;4.43;;;0.95;;
47715;SDS011;33476;50.984;3.538;2023-07-31T07:34:33;4.75;;;0.90;;
47715;SDS011;33476;50.984;3.538;2023-07-31T07:36:59;5.88;;;0.77;;
47715;SDS011;33476;50.984;3.538;2023-07-31T07:39:24;4.80;;;0.80;;
47715;SDS011;33476;50.984;3.538;2023-07-31T07:41:50;3.30;;;0.70;;
47715;SDS011;33476;50.984;3.538;2023-07-31T07:44:15;3.67;;;0.90;;
47715;SDS011;33476;50.984;3.538;2023-07-31T07:46:41;2.15;;;0.73;;
47715;SDS011;33476;50.984;3.538;2023-07-31T07:49:06;2.33;;;0.85;;
47715;SDS011;33476;50.984;3.538;2023-07-31T07:51:32;3.58;;;1.00;;
47715;SDS011;33476;50.984;3.538;2023-07-31T07:53:58;3.03;;;1.10;;
47715;SDS011;33476;50.984;3.538;2023-07-31T07:56:25;5.30;;;0.57;;
47715;SDS011;33476;50.984;3.538;2023-07-31T07:58:51;1.95;;;0.60;;
47715;SDS011;33476;50.984;3.538;2023-07-31T08:01:16;1.42;;;0.50;;
47715;SDS011;33476;50.984;3.538;2023-07-31T08:03:42;3.25;;;0.73;;
47715;SDS011;33476;50.984;3.538;2023-07-31T08:06:07;3.22;;;0.60;;
47715;SDS011;33476;50.984;3.538;2023-07-31T08:08:34;2.10;;;0.43;;
47715;SDS011;33476;50.984;3.538;2023-07-31T08:11:02;1.70;;;0.50;;
47715;SDS011;33476;50.984;3.538;2023-07-31T08:13:28;1.88;;;0.50;;
47715;SDS011;33476;50.984;3.538;2023-07-31T08:15:54;2.63;;;0.30;;
47715;SDS011;33476;50.984;3.538;2023-07-31T08:18:19;2.92;;;0.80;;
47715;SDS011;33476;50.984;3.538;2023-07-31T08:20:45;1.45;;;0.40;;
47715;SDS011;33476;50.984;3.538;2023-07-31T08:23:10;2.45;;;0.52;;
47715;SDS011;33476;50.984;3.538;2023-07-31T08:25:36;1.65;;;0.68;;
47715;SDS011;33476;50.984;3.538;2023-07-31T08:28:02;1.27;;;0.40;;
47715;SDS011;33476;50.984;3.538;2023-07-31T08:30:28;1.40;;;0.40;;
47715;SDS011;33476;50.984;3.538;2023-07-31T08:32:54;0.90;;;0.40;;
47715;SDS011;33476;50.984;3.538;2023-07-31T08:35:19;1.33;;;0.30;;
47715;SDS011;33476;50.984;3.538;2023-07-31T08:37:44;2.17;;;0.60;;
47715;SDS011;33476;50.984;3.538;2023-07-31T08:40:10;2.38;;;0.55;;
47715;SDS011;33476;50.984;3.538;2023-07-31T08:42:48;2.03;;;0.55;;
47715;SDS011;33476;50.984;3.538;2023-07-31T08:45:18;5.60;;;0.77;;
47715;SDS011;33476;50.984;3.538;2023-07-31T08:47:45;1.73;;;0.60;;
47715;SDS011;33476;50.984;3.538;2023-07-31T08:50:13;1.70;;;0.57;;
47715;SDS011;33476;50.984;3.538;2023-07-31T08:52:39;2.75;;;0.45;;
47715;SDS011;33476;50.984;3.538;2023-07-31T08:55:05;2.42;;;0.73;;
47715;SDS011;33476;50.984;3.538;2023-07-31T08:57:32;1.95;;;0.63;;
47715;SDS011;33476;50.984;3.538;2023-07-31T09:00:00;1.98;;;0.57;;
47715;SDS011;33476;50.984;3.538;2023-07-31T09:02:28;1.50;;;0.50;;
47715;SDS011;33476;50.984;3.538;2023-07-31T09:04:59;4.78;;;0.55;;
47715;SDS011;33476;50.984;3.538;2023-07-31T09:07:26;4.28;;;0.88;;
47715;SDS011;33476;50.984;3.538;2023-07-31T09:09:52;1.80;;;0.70;;
47715;SDS011;33476;50.984;3.538;2023-07-31T09:12:18;3.20;;;0.50;;
47715;SDS011;33476;50.984;3.538;2023-07-31T09:14:44;2.78;;;0.88;;
47715;SDS011;33476;50.984;3.538;2023-07-31T09:17:10;2.75;;;1.00;;
47715;SDS011;33476;50.984;3.538;2023-07-31T09:19:36;2.70;;;0.93;;
47715;SDS011;33476;50.984;3.538;2023-07-31T09:22:05;2.30;;;0.80;;
47715;SDS011;33476;50.984;3.538;2023-07-31T09:24:32;3.00;;;1.20;;
47715;SDS011;33476;50.984;3.538;2023-07-31T09:26:59;5.07;;;0.95;;
47715;SDS011;33476;50.984;3.538;2023-07-31T09:29:26;4.55;;;1.08;;
47715;SDS011;33476;50.984;3.538;2023-07-31T09:31:53;3.85;;;1.45;;
47715;SDS011;33476;50.984;3.538;2023-07-31T09:34:19;5.65;;;1.52;;
47715;SDS011;33476;50.984;3.538;2023-07-31T09:36:47;2.40;;;1.08;;
47715;SDS011;33476;50.984;3.538;2023-07-31T09:39:14;4.97;;;1.50;;
47715;SDS011;33476;50.984;3.538;2023-07-31T09:41:48;5.82;;;1.80;;
47715;SDS011;33476;50.984;3.538;2023-07-31T09:44:19;7.53;;;1.67;;
47715;SDS011;33476;50.984;3.538;2023-07-31T09:46:45;4.80;;;1.33;;
47715;SDS011;33476;50.984;3.538;2023-07-31T09:49:11;5.80;;;1.52;;
47715;SDS011;33476;50.984;3.538;2023-07-31T09:51:38;3.67;;;1.38;;
47715;SDS011;33476;50.984;3.538;2023-07-31T09:54:25;2.88;;;1.27;;
47715;SDS011;33476;50.984;3.538;2023-07-31T09:56:50;2.35;;;1.10;;
47715;SDS011;33476;50.984;3.538;2023-07-31T09:59:16;2.33;;;1.05;;
47715;SDS011;33476;50.984;3.538;2023-07-31T10:01:44;4.78;;;1.38;;
47715;SDS011;33476;50.984;3.538;2023-07-31T10:04:11;2.78;;;1.10;;
47715;SDS011;33476;50.984;3.538;2023-07-31T10:06:38;2.25;;;0.90;;
47715;SDS011;33476;50.984;3.538;2023-07-31T10:09:05;4.63;;;1.40;;
47715;SDS011;33476;50.984;3.538;2023-07-31T10:11:42;4.28;;;1.63;;
47715;SDS011;33476;50.984;3.538;2023-07-31T10:14:20;2.22;;;1.20;;
47715;SDS011;33476;50.984;3.538;2023-07-31T10:16:48;6.68;;;1.73;;
47715;SDS011;33476;50.984;3.538;2023-07-31T10:19:14;3.90;;;1.42;;
47715;SDS011;33476;50.984;3.538;2023-07-31T10:21:40;5.50;;;1.80;;
47715;SDS011;33476;50.984;3.538;2023-07-31T10:24:07;5.03;;;1.38;;
47715;SDS011;33476;50.984;3.538;2023-07-31T10:26:34;8.38;;;1.63;;
47715;SDS011;33476;50.984;3.538;2023-07-31T10:29:02;2.65;;;1.45;;
47715;SDS011;33476;50.984;3.538;2023-07-31T10:31:28;2.60;;;1.52;;
47715;SDS011;33476;50.984;3.538;2023-07-31T10:33:54;3.28;;;1.70;;
47715;SDS011;33476;50.984;3.538;2023-07-31T10:36:22;6.10;;;1.77;;
47715;SDS011;33476;50.984;3.538;2023-07-31T10:38:51;5.35;;;1.70;;
47715;SDS011;33476;50.984;3.538;2023-07-31T10:41:16;3.83;;;1.35;;
47715;SDS011;33476;50.984;3.538;2023-07-31T10:43:42;2.30;;;1.00;;
47715;SDS011;33476;50.984;3.538;2023-07-31T10:46:13;4.85;;;1.65;;
47715;SDS011;33476;50.984;3.538;2023-07-31T10:48:40;5.40;;;1.45;;
47715;SDS011;33476;50.984;3.538;2023-07-31T10:51:12;4.35;;;1.40;;
47715;SDS011;33476;50.984;3.538;2023-07-31T10:53:38;3.88;;;1.40;;
47715;SDS011;33476;50.984;3.538;2023-07-31T10:56:06;3.47;;;1.20;;
47715;SDS011;33476;50.984;3.538;2023-07-31T10:58:33;2.45;;;1.20;;
47715;SDS011;33476;50.984;3.538;2023-07-31T11:01:00;3.30;;;1.10;;
47715;SDS011;33476;50.984;3.538;2023-07-31T11:03:47;4.90;;;1.08;;
47715;SDS011;33476;50.984;3.538;2023-07-31T11:06:17;4.32;;;1.10;;
47715;SDS011;33476;50.984;3.538;2023-07-31T11:08:43;2.50;;;0.82;;
47715;SDS011;33476;50.984;3.538;2023-07-31T11:11:11;2.20;;;1.17;;
47715;SDS011;33476;50.984;3.538;2023-07-31T11:13:48;3.20;;;1.17;;
47715;SDS011;33476;50.984;3.538;2023-07-31T11:16:17;6.20;;;1.20;;
47715;SDS011;33476;50.984;3.538;2023-07-31T11:18:46;2.25;;;1.00;;
47715;SDS011;33476;50.984;3.538;2023-07-31T11:21:20;3.60;;;1.30;;
47715;SDS011;33476;50.984;3.538;2023-07-31T11:23:50;3.80;;;1.35;;
47715;SDS011;33476;50.984;3.538;2023-07-31T11:26:17;5.00;;;0.80;;
47715;SDS011;33476;50.984;3.538;2023-07-31T11:28:45;5.70;;;1.05;;
47715;SDS011;33476;50.984;3.538;2023-07-31T11:31:12;3.15;;;1.23;;
47715;SDS011;33476;50.984;3.538;2023-07-31T11:33:37;5.90;;;1.55;;
47715;SDS011;33476;50.984;3.538;2023-07-31T11:36:03;2.60;;;1.15;;
47715;SDS011;33476;50.984;3.538;2023-07-31T11:38:32;3.05;;;0.85;;
47715;SDS011;33476;50.984;3.538;2023-07-31T11:41:02;4.18;;;1.45;;
47715;SDS011;33476;50.984;3.538;2023-07-31T11:43:33;4.75;;;1.10;;
47715;SDS011;33476;50.984;3.538;2023-07-31T11:45:59;3.55;;;1.40;;
47715;SDS011;33476;50.984;3.538;2023-07-31T11:48:29;4.18;;;1.05;;
47715;SDS011;33476;50.984;3.538;2023-07-31T11:50:58;2.80;;;1.45;;
47715;SDS011;33476;50.984;3.538;2023-07-31T11:53:38;4.70;;;1.55;;
47715;SDS011;33476;50.984;3.538;2023-07-31T11:56:09;7.30;;;1.70;;
47715;SDS011;33476;50.984;3.538;2023-07-31T11:58:36;3.47;;;1.40;;
47715;SDS011;33476;50.984;3.538;2023-07-31T12:01:03;6.15;;;1.77;;
47715;SDS011;33476;50.984;3.538;2023-07-31T12:03:29;6.10;;;1.58;;
47715;SDS011;33476;50.984;3.538;2023-07-31T12:05:57;6.53;;;1.40;;
47715;SDS011;33476;50.984;3.538;2023-07-31T12:08:24;4.20;;;1.80;;
47715;SDS011;33476;50.984;3.538;2023-07-31T12:10:50;2.53;;;1.55;;
47715;SDS011;33476;50.984;3.538;2023-07-31T12:13:20;6.90;;;1.92;;
47715;SDS011;33476;50.984;3.538;2023-07-31T12:15:47;2.90;;;1.13;;
47715;SDS011;33476;50.984;3.538;2023-07-31T12:18:14;4.75;;;1.95;;
47715;SDS011;33476;50.984;3.538;2023-07-31T12:20:47;4.20;;;1.90;;
47715;SDS011;33476;50.984;3.538;2023-07-31T12:25:44;3.50;;;1.98;;
47715;SDS011;33476;50.984;3.538;2023-07-31T12:28:10;5.38;;;2.15;;
47715;SDS011;33476;50.984;3.538;2023-07-31T12:30:39;5.07;;;1.70;;
47715;SDS011;33476;50.984;3.538;2023-07-31T12:33:14;5.68;;;2.30;;
47715;SDS011;33476;50.984;3.538;2023-07-31T12:35:41;4.53;;;2.10;;
47715;SDS011;33476;50.984;3.538;2023-07-31T12:38:08;3.63;;;2.28;;
47715;SDS011;33476;50.984;3.538;2023-07-31T12:40:35;6.35;;;1.92;;
47715;SDS011;33476;50.984;3.538;2023-07-31T12:43:02;3.92;;;1.52;;
47715;SDS011;33476;50.984;3.538;2023-07-31T12:45:31;3.90;;;1.65;;
47715;SDS011;33476;50.984;3.538;2023-07-31T12:47:57;4.65;;;1.38;;
47715;SDS011;33476;50.984;3.538;2023-07-31T12:50:23;3.72;;;1.48;;
47715;SDS011;33476;50.984;3.538;2023-07-31T12:52:49;5.32;;;1.42;;
47715;SDS011;33476;50.984;3.538;2023-07-31T12:55:14;4.72;;;1.08;;
47715;SDS011;33476;50.984;3.538;2023-07-31T12:57:40;3.30;;;0.95;;
47715;SDS011;33476;50.984;3.538;2023-07-31T13:00:08;4.03;;;1.08;;
47715;SDS011;33476;50.984;3.538;2023-07-31T13:02:34;3.83;;;1.20;;
47715;SDS011;33476;50.984;3.538;2023-07-31T13:04:59;3.63;;;1.13;;
47715;SDS011;33476;50.984;3.538;2023-07-31T13:07:25;2.72;;;1.23;;
47715;SDS011;33476;50.984;3.538;2023-07-31T13:09:51;2.95;;;0.90;;
47715;SDS011;33476;50.984;3.538;2023-07-31T13:12:17;1.15;;;0.63;;
47715;SDS011;33476;50.984;3.538;2023-07-31T13:14:42;2.38;;;0.52;;
47715;SDS011;33476;50.984;3.538;2023-07-31T13:17:07;2.13;;;0.45;;
47715;SDS011;33476;50.984;3.538;2023-07-31T13:19:33;2.20;;;0.47;;
47715;SDS011;33476;50.984;3.538;2023-07-31T13:21:58;2.20;;;0.40;;
47715;SDS011;33476;50.984;3.538;2023-07-31T13:24:23;2.47;;;0.40;;
47715;SDS011;33476;50.984;3.538;2023-07-31T13:26:49;1.88;;;0.40;;
47715;SDS011;33476;50.984;3.538;2023-07-31T13:29:14;1.17;;;0.50;;
47715;SDS011;33476;50.984;3.538;2023-07-31T13:31:40;3.38;;;0.50;;
47715;SDS011;33476;50.984;3.538;2023-07-31T13:34:05;1.20;;;0.30;;
47715;SDS011;33476;50.984;3.538;2023-07-31T13:36:30;0.95;;;0.40;;
47715;SDS011;33476;50.984;3.538;2023-07-31T13:38:56;1.40;;;0.57;;
47715;SDS011;33476;50.984;3.538;2023-07-31T13:41:21;3.08;;;1.02;;
47715;SDS011;33476;50.984;3.538;2023-07-31T13:43:46;2.00;;;0.80;;
47715;SDS011;33476;50.984;3.538;2023-07-31T13:46:12;4.50;;;0.80;;
47715;SDS011;33476;50.984;3.538;2023-07-31T13:48:37;3.30;;;0.77;;
47715;SDS011;33476;50.984;3.538;2023-07-31T13:51:03;2.20;;;1.08;;
47715;SDS011;33476;50.984;3.538;2023-07-31T13:53:28;2.45;;;0.68;;
47715;SDS011;33476;50.984;3.538;2023-07-31T13:55:53;1.80;;;0.90;;
47715;SDS011;33476;50.984;3.538;2023-07-31T13:58:20;4.25;;;1.10;;
47715;SDS011;33476;50.984;3.538;2023-07-31T14:00:45;3.47;;;1.13;;
47715;SDS011;33476;50.984;3.538;2023-07-31T14:03:11;4.10;;;1.33;;
47715;SDS011;33476;50.984;3.538;2023-07-31T14:05:36;3.13;;;0.73;;
47715;SDS011;33476;50.984;3.538;2023-07-31T14:08:02;2.67;;;1.05;;
47715;SDS011;33476;50.984;3.538;2023-07-31T14:10:27;3.72;;;0.88;;
47715;SDS011;33476;50.984;3.538;2023-07-31T14:12:53;1.95;;;0.75;;
47715;SDS011;33476;50.984;3.538;2023-07-31T14:15:18;1.58;;;0.73;;
47715;SDS011;33476;50.984;3.538;2023-07-31T14:17:43;1.17;;;0.40;;
47715;SDS011;33476;50.984;3.538;2023-07-31T14:20:09;2.85;;;0.75;;
47715;SDS011;33476;50.984;3.538;2023-07-31T14:22:35;1.52;;;0.60;;
47715;SDS011;33476;50.984;3.538;2023-07-31T14:25:02;3.08;;;0.65;;
47715;SDS011;33476;50.984;3.538;2023-07-31T14:27:28;2.63;;;0.80;;
47715;SDS011;33476;50.984;3.538;2023-07-31T14:29:53;2.88;;;0.65;;
47715;SDS011;33476;50.984;3.538;2023-07-31T14:32:19;2.72;;;0.40;;
47715;SDS011;33476;50.984;3.538;2023-07-31T14:34:44;1.52;;;0.40;;
47715;SDS011;33476;50.984;3.538;2023-07-31T14:37:09;1.83;;;0.60;;
47715;SDS011;33476;50.984;3.538;2023-07-31T14:39:35;2.20;;;0.50;;
47715;SDS011;33476;50.984;3.538;2023-07-31T14:42:00;0.55;;;0.30;;
47715;SDS011;33476;50.984;3.538;2023-07-31T14:44:26;1.05;;;0.30;;
47715;SDS011;33476;50.984;3.538;2023-07-31T14:46:51;1.50;;;0.20;;
47715;SDS011;33476;50.984;3.538;2023-07-31T14:49:16;0.90;;;0.30;;